createdAt,value
2022-10-22T00:09:55.243Z,20.38
2022-10-22T00:14:58.816Z,16.42
2022-10-22T00:20:02.441Z,20.55
2022-10-22T00:25:08.589Z,20.45
2022-10-22T00:30:13.316Z,19.95
2022-10-22T00:35:16.762Z,25.10
2022-10-22T00:40:21.843Z,24.23
2022-10-22T00:45:26.317Z,55.80
2022-10-22T00:50:34.553Z,33.22
2022-10-22T00:55:40.826Z,66.50
2022-10-22T01:00:44.560Z,34.17
2022-10-22T01:05:55.730Z,34.25
2022-10-22T01:11:13.499Z,23.60
2022-10-22T01:16:23.383Z,20.33
2022-10-22T01:21:32.905Z,22.98
2022-10-22T01:26:52.461Z,23.85
2022-10-22T01:32:01.809Z,21.42
2022-10-22T01:37:05.551Z,22.88
2022-10-22T01:42:09.233Z,19.67
2022-10-22T01:47:41.182Z,20.33
2022-10-22T01:52:56.991Z,18.98
2022-10-22T01:58:15.426Z,19.00
2022-10-22T02:03:28.638Z,22.40
2022-10-22T02:08:35.878Z,17.88
2022-10-22T02:13:45.254Z,20.25
2022-10-22T02:18:55.686Z,16.88
2022-10-22T02:23:59.748Z,18.98
2022-10-22T02:29:11.514Z,21.27
2022-10-22T02:34:20.941Z,23.65
2022-10-22T02:39:25.105Z,19.38
2022-10-22T02:44:28.468Z,22.33
2022-10-22T02:49:33.231Z,17.63
2022-10-22T02:54:36.536Z,19.25
2022-10-22T02:59:39.907Z,17.50
2022-10-22T03:04:44.858Z,17.98
2022-10-22T03:09:48.671Z,20.95
2022-10-22T03:14:51.985Z,21.27
2022-10-22T03:19:57.113Z,18.85
2022-10-22T03:25:04.409Z,17.77
2022-10-22T03:30:09.886Z,17.58
2022-10-22T03:35:15.293Z,20.88
2022-10-22T03:40:19.669Z,19.50
2022-10-22T03:45:23.038Z,17.67
2022-10-22T03:50:28.041Z,19.50
2022-10-22T03:55:31.363Z,17.27
2022-10-22T04:00:36.228Z,18.42
2022-10-22T04:10:44.386Z,16.75
2022-10-22T04:15:47.853Z,17.02
2022-10-22T04:20:54.405Z,19.45
2022-10-22T04:26:00.469Z,13.45
2022-10-22T04:31:09.978Z,15.35
2022-10-22T04:36:16.425Z,11.57
2022-10-22T04:41:21.166Z,12.30
2022-10-22T04:46:25.503Z,15.18
2022-10-22T04:51:30.210Z,14.20
2022-10-22T04:56:34.011Z,12.20
2022-10-22T05:01:42.644Z,11.13
2022-10-22T05:06:48.170Z,13.77
2022-10-22T05:16:56.476Z,12.27
2022-10-22T05:22:03.133Z,12.02
2022-10-22T05:27:06.659Z,12.73
2022-10-22T05:32:10.102Z,13.75
2022-10-22T05:37:14.770Z,8.68
2022-10-22T05:42:18.110Z,10.85
2022-10-22T05:47:21.510Z,10.95
2022-10-22T05:52:26.317Z,8.73
2022-10-22T06:02:32.891Z,12.15
2022-10-22T06:07:38.036Z,9.48
2022-10-22T06:12:41.823Z,14.82
2022-10-22T06:17:46.023Z,9.17
2022-10-22T06:22:50.771Z,9.87
2022-10-22T06:27:54.186Z,8.13
2022-10-22T06:32:57.758Z,9.15
2022-10-22T06:38:02.615Z,8.80
2022-10-22T06:48:09.786Z,8.02
2022-10-22T06:53:14.593Z,5.90
2022-10-22T07:03:20.931Z,7.32
2022-10-22T07:08:26.011Z,8.85
2022-10-22T07:13:29.936Z,8.05
2022-10-22T07:18:33.973Z,12.33
2022-10-22T07:23:39.613Z,10.70
2022-10-22T07:28:46.038Z,9.75
2022-10-22T07:33:49.838Z,9.00
2022-10-22T07:38:58.450Z,7.57
2022-10-22T07:44:02.024Z,7.68
2022-10-22T07:49:05.624Z,10.52
2022-10-22T07:54:10.913Z,11.57
2022-10-22T07:59:14.684Z,8.40
2022-10-22T08:04:18.477Z,12.80
2022-10-22T08:09:24.415Z,8.90
2022-10-22T08:14:31.517Z,7.95
2022-10-22T08:19:35.699Z,7.07
2022-10-22T08:24:42.057Z,7.32
2022-10-22T08:29:45.718Z,4.80
2022-10-22T08:34:49.363Z,5.90
2022-10-22T08:39:55.302Z,8.20
2022-10-22T08:45:09.699Z,6.82
2022-10-22T08:50:17.582Z,6.68
2022-10-22T08:55:25.966Z,9.30
2022-10-22T09:00:36.375Z,6.40
2022-10-22T09:05:49.719Z,8.85
2022-10-22T09:10:59.980Z,7.00
2022-10-22T09:16:15.973Z,7.65
2022-10-22T09:21:27.820Z,5.15
2022-10-22T09:26:35.543Z,4.20
2022-10-22T09:31:38.886Z,4.95
2022-10-22T09:36:42.459Z,4.72
2022-10-22T09:41:47.306Z,4.32
2022-10-22T09:51:56.766Z,4.82
2022-10-22T09:57:06.059Z,3.42
2022-10-22T10:02:20.179Z,3.60
2022-10-22T10:07:37.819Z,4.22
2022-10-22T10:12:50.113Z,3.60
2022-10-22T10:18:05.062Z,5.50
2022-10-22T10:23:15.908Z,5.90
2022-10-22T10:28:37.746Z,6.55
2022-10-22T10:33:53.168Z,5.35
2022-10-22T10:44:35.079Z,5.70
2022-10-22T10:49:38.501Z,4.25
2022-10-22T10:54:52.389Z,4.88
2022-10-22T11:00:04.041Z,4.65
2022-10-22T11:05:21.716Z,3.95
2022-10-22T11:10:31.496Z,4.43
2022-10-22T11:15:38.743Z,5.15
2022-10-22T11:20:55.747Z,5.80
2022-10-22T11:26:00.867Z,5.97
2022-10-22T11:31:12.813Z,5.40
2022-10-22T11:36:19.888Z,7.07
2022-10-22T11:41:28.264Z,4.85
2022-10-22T11:46:41.399Z,5.22
2022-10-22T11:51:47.140Z,5.78
2022-10-22T11:56:59.011Z,8.52
2022-10-22T12:02:03.801Z,6.57
2022-10-22T12:12:40.141Z,7.40
2022-10-22T12:17:45.444Z,5.07
2022-10-22T12:22:48.987Z,5.30
2022-10-22T12:27:55.126Z,7.65
2022-10-22T12:33:01.845Z,5.57
2022-10-22T12:38:14.627Z,8.90
2022-10-22T12:43:19.664Z,5.85
2022-10-22T12:48:26.527Z,5.25
2022-10-22T12:53:33.171Z,6.65
2022-10-22T12:58:41.314Z,7.47
2022-10-22T13:03:50.087Z,8.63
2022-10-22T13:09:17.751Z,7.55
2022-10-22T13:14:27.554Z,7.07
2022-10-22T13:19:47.370Z,8.02
2022-10-22T13:24:51.624Z,6.60
2022-10-22T13:29:55.804Z,7.07
2022-10-22T13:35:02.510Z,5.18
2022-10-22T13:40:13.245Z,4.90
2022-10-22T13:45:18.424Z,5.20
2022-10-22T13:50:23.288Z,7.80
2022-10-22T14:00:31.123Z,4.90
2022-10-22T14:05:36.232Z,4.47
2022-10-22T14:10:39.718Z,5.00
2022-10-22T14:15:43.595Z,5.55
2022-10-22T14:20:48.591Z,3.70
2022-10-22T14:25:52.145Z,7.22
2022-10-22T14:30:56.493Z,6.78
2022-10-22T14:36:01.674Z,8.63
2022-10-22T14:41:16.114Z,11.10
2022-10-22T14:46:20.542Z,10.63
2022-10-22T14:51:25.317Z,10.82
2022-10-22T14:56:28.872Z,11.10
2022-10-22T15:01:32.331Z,13.30
2022-10-22T15:06:37.159Z,9.98
2022-10-22T15:16:43.649Z,11.88
2022-10-22T15:21:48.555Z,12.98
2022-10-22T15:26:54.100Z,14.27
2022-10-22T15:31:59.394Z,13.02
2022-10-22T15:37:06.481Z,14.60
2022-10-22T15:42:10.996Z,11.13
2022-10-22T15:47:14.574Z,13.57
2022-10-22T15:52:19.404Z,15.05
2022-10-22T16:02:26.100Z,14.48
2022-10-22T16:07:31.123Z,12.85
2022-10-22T16:12:36.043Z,15.10
2022-10-22T16:22:44.318Z,15.77
2022-10-22T16:27:50.964Z,15.48
2022-10-22T16:32:54.264Z,17.15
2022-10-22T16:38:00.015Z,14.80
2022-10-22T16:43:03.445Z,20.65
2022-10-22T16:48:07.485Z,13.80
2022-10-22T16:53:12.407Z,17.58
2022-10-22T17:03:19.030Z,15.75
2022-10-22T17:08:24.630Z,15.00
2022-10-22T17:13:28.074Z,13.23
2022-10-22T17:18:32.105Z,15.38
2022-10-22T17:23:37.503Z,14.63
2022-10-22T17:28:41.408Z,13.32
2022-10-22T17:33:45.186Z,16.63
2022-10-22T17:38:52.560Z,15.35
2022-10-22T17:43:56.902Z,12.98
2022-10-22T17:49:03.049Z,14.68
2022-10-22T17:54:09.908Z,16.17
2022-10-22T17:59:15.923Z,15.68
2022-10-22T18:04:22.423Z,16.25
2022-10-22T18:09:27.977Z,18.75
2022-10-22T18:14:31.350Z,15.55
2022-10-22T18:19:35.071Z,18.85
2022-10-22T18:24:40.508Z,15.82
2022-10-22T18:29:43.915Z,16.65
2022-10-22T18:34:48.350Z,13.98
2022-10-22T18:39:53.086Z,13.48
2022-10-22T18:44:56.415Z,15.05
2022-10-22T18:50:00.267Z,14.15
2022-10-22T18:55:05.729Z,16.08
2022-10-22T19:00:10.442Z,13.13
2022-10-22T19:05:13.867Z,15.73
2022-10-22T19:10:18.988Z,13.20
2022-10-22T19:15:22.481Z,17.70
2022-10-22T19:20:25.968Z,16.35
2022-10-22T19:25:30.942Z,13.98
2022-10-22T19:30:34.347Z,14.65
2022-10-22T19:35:38.062Z,17.25
2022-10-22T19:40:44.022Z,17.92
2022-10-22T19:45:47.487Z,16.25
2022-10-22T19:50:51.121Z,15.23
2022-10-22T19:55:56.269Z,16.20
2022-10-22T20:01:05.311Z,16.55
2022-10-22T20:06:11.670Z,16.10
2022-10-22T20:11:25.119Z,17.13
2022-10-22T20:16:30.250Z,15.50
2022-10-22T20:21:34.721Z,17.00
2022-10-22T20:26:40.221Z,16.77
2022-10-22T20:31:43.694Z,19.08
2022-10-22T20:36:47.316Z,16.42
2022-10-22T20:41:52.663Z,16.08
2022-10-22T20:51:59.672Z,19.58
2022-10-22T20:57:05.669Z,17.35
2022-10-22T21:02:11.272Z,20.35
2022-10-22T21:07:14.639Z,19.00
2022-10-22T21:12:19.491Z,17.33
2022-10-22T21:22:26.138Z,18.50
2022-10-22T21:27:31.383Z,17.50
2022-10-22T21:32:35.160Z,17.80
2022-10-22T21:37:38.852Z,17.92
2022-10-22T21:42:43.992Z,13.18
2022-10-22T21:47:47.418Z,14.95
2022-10-22T21:52:50.914Z,12.35
2022-10-22T21:57:55.689Z,14.77
2022-10-22T22:02:59.206Z,13.10
2022-10-22T22:08:02.782Z,13.63
2022-10-22T22:13:07.526Z,12.80
2022-10-22T22:18:10.921Z,13.57
2022-10-22T22:23:14.273Z,15.93
2022-10-22T22:28:19.198Z,15.93
2022-10-22T22:33:22.583Z,15.70
2022-10-22T22:38:26.250Z,15.77
2022-10-22T22:43:31.044Z,18.88
2022-10-22T22:48:34.772Z,18.88
2022-10-22T22:53:38.289Z,18.73
2022-10-22T22:58:43.730Z,15.20
2022-10-22T23:03:48.783Z,12.88
2022-10-22T23:08:53.159Z,11.18
2022-10-22T23:13:59.809Z,11.02
2022-10-22T23:19:03.918Z,13.45
2022-10-22T23:24:10.415Z,11.30
2022-10-22T23:29:17.244Z,10.00
2022-10-22T23:34:23.173Z,10.30
2022-10-22T23:39:28.040Z,14.55
2022-10-22T23:49:36.059Z,9.27
2022-10-22T23:54:39.449Z,10.45
2022-10-22T23:59:44.204Z,10.35
